Terminal Aerodrome Forecast
Issued by NWS

Home | Current Version | Previous Version | Text Only | Print | Product List | Glossary On
Versions: 1 2 3 4 5 6 7 8 9 10 11 12 13 14 15 16
580
FTUS46 KHNX 221737
TAFFAT
TAF
KFAT 221737Z 2218/2318 14015G28KT 5SM -RA OVC045
     FM230200 29013G20KT P6SM -SHRA SCT020 BKN045
     FM230800 31010KT P6SM SCT050=

USA.gov is the U.S. government's official web portal to all federal, state and local government web resources and services.